Time;durP1;ratioP1;P1;durP2;ratioP2;P2;SDS_P1;SDS_P2;PMS_P1;PMS_P2;Temp;Humidity;BMP_temperature;BMP_pressure;BME280_temperature;BME280_humidity;BME280_pressure;Samples;Min_cycle;Max_cycle;Signal;HPM_P1;HPM_P2
2023/01/12 00:02:05;;;;;;;1999.90;330.10;;;6.80;99.90;;;;;;5028596;28;20240;-52
2023/01/12 00:04:34;;;;;;;1670.30;319.23;;;6.80;99.90;;;;;;5029260;28;20202;-51
2023/01/12 00:07:03;;;;;;;1999.90;376.47;;;6.80;99.90;;;;;;5028854;28;20210;-52
2023/01/12 00:09:31;;;;;;;1966.07;351.17;;;6.80;99.90;;;;;;5028888;28;20222;-51
2023/01/12 00:11:59;;;;;;;1981.67;361.93;;;6.80;99.90;;;;;;5028498;28;20249;-51
2023/01/12 00:14:28;;;;;;;1999.90;810.17;;;6.80;99.90;;;;;;5026311;28;20262;-51
2023/01/12 00:16:56;;;;;;;1999.90;420.83;;;6.80;99.90;;;;;;5020400;28;20297;-51
2023/01/12 00:19:26;;;;;;;1999.90;345.50;;;6.80;99.90;;;;;;5028053;28;20694;-52
2023/01/12 00:22:01;;;;;;;1292.30;249.77;;;6.80;99.90;;;;;;5028439;28;20271;-51
2023/01/12 00:24:32;;;;;;;1999.90;488.27;;;6.80;99.90;;;;;;5028823;28;20229;-51
2023/01/12 00:27:02;;;;;;;1959.00;285.13;;;6.80;99.90;;;;;;5028700;28;20205;-51
2023/01/12 00:29:30;;;;;;;1009.23;176.70;;;6.80;99.90;;;;;;5029003;28;20295;-51
2023/01/12 00:31:59;;;;;;;1971.00;295.77;;;6.90;99.90;;;;;;5028933;28;20293;-51
2023/01/12 00:34:29;;;;;;;1367.87;202.37;;;6.90;99.90;;;;;;5028489;28;20254;-51
2023/01/12 00:36:59;;;;;;;1806.10;287.03;;;6.90;99.90;;;;;;5015959;28;20301;-51
2023/01/12 00:39:27;;;;;;;1998.60;336.83;;;6.90;99.90;;;;;;5032675;28;20210;-52
2023/01/12 00:47:26;;;;;;;1673.77;275.93;;;6.90;99.90;;;;;;5031827;28;20225;-51
2023/01/12 00:49:56;;;;;;;1999.90;773.47;;;6.90;99.90;;;;;;5032505;28;20296;-51
2023/01/12 00:52:24;;;;;;;1373.40;209.77;;;6.90;99.90;;;;;;5032406;28;20291;-51
2023/01/12 00:54:58;;;;;;;1264.90;197.97;;;7.00;99.90;;;;;;5032759;28;20209;-51
2023/01/12 00:57:28;;;;;;;1999.90;563.67;;;7.00;99.90;;;;;;5032412;28;20228;-51
2023/01/12 00:59:56;;;;;;;1999.90;511.13;;;6.90;99.90;;;;;;5032248;28;20209;-51
2023/01/12 01:02:25;;;;;;;1999.90;637.73;;;6.90;99.90;;;;;;5030959;28;20256;-51
2023/01/12 01:04:54;;;;;;;1581.63;238.97;;;6.90;99.90;;;;;;5026851;28;20206;-51
2023/01/12 01:07:22;;;;;;;1412.77;238.23;;;7.00;99.90;;;;;;5028053;28;20824;-51
2023/01/12 01:09:51;;;;;;;1999.90;542.93;;;7.00;99.90;;;;;;5031636;28;20220;-51
2023/01/12 01:12:19;;;;;;;1999.90;491.73;;;7.00;99.90;;;;;;5032055;28;20214;-51
2023/01/12 01:14:48;;;;;;;1999.90;422.97;;;7.00;99.90;;;;;;5032170;28;20315;-51
2023/01/12 01:17:16;;;;;;;1999.90;402.87;;;6.90;99.90;;;;;;5031801;28;20230;-51
2023/01/12 01:19:44;;;;;;;1999.90;596.07;;;6.90;99.90;;;;;;5031998;28;20242;-51
2023/01/12 01:22:13;;;;;;;1999.90;659.03;;;6.80;99.90;;;;;;5030323;28;20585;-51
2023/01/12 01:24:42;;;;;;;1188.87;260.10;;;6.80;99.90;;;;;;5031874;28;20232;-51
2023/01/12 01:27:10;;;;;;;746.37;144.90;;;6.80;99.90;;;;;;5031903;28;20291;-51
2023/01/12 01:29:38;;;;;;;1999.90;752.50;;;6.80;99.90;;;;;;5031625;28;20206;-51
2023/01/12 01:32:06;;;;;;;1999.90;515.90;;;6.80;99.90;;;;;;5031712;28;20272;-51
2023/01/12 01:34:35;;;;;;;1669.03;321.77;;;6.80;99.90;;;;;;5031840;28;20316;-51
2023/01/12 01:37:03;;;;;;;823.90;99.17;;;6.70;99.90;;;;;;5031806;28;20245;-51
2023/01/12 01:39:32;;;;;;;1419.50;249.13;;;6.80;99.90;;;;;;5030319;28;20633;-51
2023/01/12 01:42:00;;;;;;;1242.00;180.00;;;6.80;99.90;;;;;;5031289;28;20305;-51
2023/01/12 01:44:53;;;;;;;1999.90;693.43;;;6.80;99.90;;;;;;5031389;28;20652;-51
2023/01/12 01:47:30;;;;;;;1999.90;329.50;;;6.80;99.90;;;;;;5020324;28;20257;-51
2023/01/12 01:50:01;;;;;;;504.20;80.13;;;6.90;99.90;;;;;;5030762;28;20246;-51
2023/01/12 01:52:32;;;;;;;1999.90;362.90;;;6.80;99.90;;;;;;5021573;28;20233;-51
2023/01/12 01:55:06;;;;;;;1999.90;445.43;;;6.80;99.90;;;;;;5030972;28;20653;-51
2023/01/12 01:57:42;;;;;;;1999.90;397.43;;;6.80;99.90;;;;;;5031454;28;20253;-51
2023/01/12 02:00:12;;;;;;;1213.00;177.87;;;6.80;99.90;;;;;;5019135;28;20261;-51
2023/01/12 02:02:41;;;;;;;900.97;195.30;;;6.80;99.90;;;;;;5030427;28;20264;-51
2023/01/12 02:05:11;;;;;;;1664.97;263.67;;;6.80;99.90;;;;;;5031121;28;20210;-51
2023/01/12 02:07:40;;;;;;;514.60;97.30;;;6.80;99.90;;;;;;5030656;28;20723;-51
2023/01/12 02:10:11;;;;;;;1929.20;310.17;;;6.80;99.90;;;;;;5030248;28;20218;-51
2023/01/12 02:18:24;;;;;;;1057.50;189.07;;;6.80;99.90;;;;;;5030445;28;20703;-51
2023/01/12 02:21:11;;;;;;;1501.13;303.37;;;6.80;99.90;;;;;;5030829;28;20214;-51
2023/01/12 02:24:19;;;;;;;1593.60;234.87;;;6.80;99.90;;;;;;5029456;28;20237;-51
2023/01/12 02:27:29;;;;;;;794.63;90.87;;;6.90;99.90;;;;;;5021950;28;20202;-51
2023/01/12 02:30:26;;;;;;;874.47;114.00;;;6.90;99.90;;;;;;5031079;28;20264;-51
2023/01/12 02:33:07;;;;;;;1528.73;179.27;;;6.90;99.90;;;;;;5026386;28;20285;-51
2023/01/12 02:35:43;;;;;;;266.50;63.27;;;6.90;99.90;;;;;;5030732;28;20260;-51
2023/01/12 02:38:18;;;;;;;1344.20;202.43;;;7.00;99.90;;;;;;5030379;28;20233;-51
2023/01/12 02:40:58;;;;;;;1116.17;173.97;;;7.00;99.90;;;;;;5030524;28;20296;-51
2023/01/12 02:43:28;;;;;;;1999.90;351.53;;;7.00;99.90;;;;;;5017175;28;20294;-51
2023/01/12 02:46:04;;;;;;;1999.90;466.50;;;6.90;99.90;;;;;;5030603;28;20297;-51
2023/01/12 02:48:37;;;;;;;635.90;117.60;;;7.00;99.90;;;;;;5030454;28;20230;-51
2023/01/12 02:51:11;;;;;;;745.43;110.10;;;7.00;99.90;;;;;;5024700;28;20234;-51
2023/01/12 02:53:43;;;;;;;1822.40;291.70;;;7.00;99.90;;;;;;5029609;28;20305;-51
2023/01/12 02:56:14;;;;;;;1999.90;315.93;;;7.00;99.90;;;;;;5030106;28;20228;-51
2023/01/12 02:58:45;;;;;;;1161.83;149.13;;;7.00;99.90;;;;;;5021813;28;20225;-51
2023/01/12 03:01:15;;;;;;;1674.40;233.47;;;7.00;99.90;;;;;;5028776;28;20297;-51
2023/01/12 03:03:46;;;;;;;1999.90;389.60;;;7.00;99.90;;;;;;5029692;28;20691;-50
2023/01/12 03:06:16;;;;;;;501.83;72.63;;;7.00;99.90;;;;;;5030290;28;20210;-51
2023/01/12 03:08:45;;;;;;;1456.37;198.90;;;7.00;99.90;;;;;;5029151;28;20254;-51
2023/01/12 03:11:15;;;;;;;1183.33;196.43;;;7.00;99.90;;;;;;5026960;28;20287;-51
2023/01/12 03:13:49;;;;;;;1603.00;191.20;;;7.10;99.90;;;;;;5029324;28;20242;-51
2023/01/12 03:16:22;;;;;;;1987.33;287.87;;;7.10;99.90;;;;;;5029832;28;20202;-52
2023/01/12 03:18:57;;;;;;;304.43;56.27;;;7.10;99.90;;;;;;5029977;28;20229;-51
2023/01/12 03:21:30;;;;;;;1999.90;458.60;;;7.10;99.90;;;;;;5029444;28;20695;-52
2023/01/12 03:24:03;;;;;;;1999.90;498.33;;;7.00;99.90;;;;;;5029730;28;20248;-51
2023/01/12 03:26:35;;;;;;;1999.90;375.93;;;7.00;99.90;;;;;;5029273;28;20308;-51
2023/01/12 03:29:08;;;;;;;1999.90;845.37;;;7.10;99.90;;;;;;5029203;28;20249;-52
2023/01/12 03:31:37;;;;;;;1999.90;464.83;;;7.00;99.90;;;;;;5029447;28;20685;-51
2023/01/12 03:34:08;;;;;;;1999.90;378.33;;;7.00;99.90;;;;;;5029264;28;20639;-51
2023/01/12 03:36:45;;;;;;;1999.90;324.20;;;7.00;99.90;;;;;;5029463;28;20238;-52
2023/01/12 03:39:22;;;;;;;805.77;167.30;;;7.00;99.90;;;;;;5029497;28;20226;-52
2023/01/12 03:41:57;;;;;;;1999.90;456.30;;;7.00;99.90;;;;;;5029466;28;20300;-51
2023/01/12 03:44:36;;;;;;;1831.70;225.40;;;7.00;99.90;;;;;;5029144;28;20293;-52
2023/01/12 03:47:10;;;;;;;459.93;83.47;;;7.00;99.90;;;;;;5028871;28;20249;-52
2023/01/12 03:49:43;;;;;;;1379.37;255.90;;;7.00;99.90;;;;;;5025439;28;20248;-52
2023/01/12 03:52:12;;;;;;;1999.90;444.03;;;7.00;99.90;;;;;;5028249;28;20687;-51
2023/01/12 03:54:43;;;;;;;1999.90;500.17;;;7.10;99.90;;;;;;5029003;28;20265;-51
2023/01/12 03:57:12;;;;;;;1999.90;302.63;;;7.10;99.90;;;;;;5022265;28;20241;-52
2023/01/12 03:59:41;;;;;;;1999.90;352.10;;;7.10;99.90;;;;;;5027973;28;20237;-51
2023/01/12 04:02:09;;;;;;;1999.90;302.67;;;7.10;99.90;;;;;;5029145;28;20285;-52
2023/01/12 04:04:39;;;;;;;1999.90;560.77;;;7.10;99.90;;;;;;5021832;28;20203;-51
2023/01/12 04:07:07;;;;;;;1999.90;384.90;;;7.10;99.90;;;;;;5015144;28;20245;-51
2023/01/12 04:09:36;;;;;;;1999.90;674.10;;;7.10;99.90;;;;;;5027448;28;20308;-51
2023/01/12 04:12:10;;;;;;;1999.90;510.20;;;7.10;99.90;;;;;;5028633;28;20321;-51
2023/01/12 04:14:39;;;;;;;1999.90;598.73;;;7.10;99.90;;;;;;5029062;28;20232;-51
2023/01/12 04:17:08;;;;;;;1999.90;427.37;;;7.10;99.90;;;;;;5029180;28;20225;-51
2023/01/12 04:19:36;;;;;;;1167.80;245.83;;;7.00;99.90;;;;;;5028847;28;20213;-53
2023/01/12 04:24:51;;;;;;;1513.63;169.90;;;7.10;99.90;;;;;;5027040;28;20233;-52
2023/01/12 04:27:19;;;;;;;1833.43;242.33;;;7.10;99.90;;;;;;5027567;28;20930;-51
2023/01/12 04:29:47;;;;;;;1999.90;514.70;;;7.00;99.90;;;;;;5028708;28;20289;-51
2023/01/12 04:32:15;;;;;;;1999.90;644.13;;;7.00;99.90;;;;;;5028777;28;20233;-51
2023/01/12 04:34:44;;;;;;;1999.90;485.03;;;7.00;99.90;;;;;;5019235;28;20707;-52
2023/01/12 04:37:14;;;;;;;1657.73;246.33;;;7.00;99.90;;;;;;5028438;28;20206;-52
2023/01/12 04:39:42;;;;;;;1126.47;156.60;;;7.10;99.90;;;;;;5028968;28;20681;-52
2023/01/12 04:42:59;;;;;;;1999.90;585.37;;;7.10;99.90;;;;;;5028263;28;20238;-52
2023/01/12 04:44:58;;;;;;;1755.33;257.97;;;7.00;99.90;;;;;;5028681;28;20202;-52
2023/01/12 04:47:26;;;;;;;1999.90;425.97;;;7.00;99.90;;;;;;5024263;28;20230;-51
2023/01/12 04:49:54;;;;;;;1970.30;247.00;;;7.10;99.90;;;;;;5028864;28;20700;-51
2023/01/12 04:52:24;;;;;;;1999.90;452.93;;;7.10;99.90;;;;;;5028767;28;20238;-51
2023/01/12 04:54:52;;;;;;;1281.83;229.83;;;7.10;99.90;;;;;;5028582;28;20253;-52
2023/01/12 04:57:22;;;;;;;1999.90;394.13;;;7.10;99.90;;;;;;5028810;28;20317;-52
2023/01/12 04:59:50;;;;;;;1999.90;352.37;;;7.10;99.90;;;;;;5024927;28;20718;-51
2023/01/12 05:02:18;;;;;;;1999.90;587.33;;;7.10;99.90;;;;;;5031923;28;20291;-51
2023/01/12 05:04:46;;;;;;;1999.90;440.27;;;7.10;99.90;;;;;;5039538;28;20248;-52
2023/01/12 05:07:15;;;;;;;1999.90;384.07;;;7.10;99.90;;;;;;5028741;28;20238;-51
2023/01/12 05:12:30;;;;;;;1638.23;244.63;;;7.10;99.90;;;;;;5027825;28;20206;-52
2023/01/12 05:14:58;;;;;;;1948.93;228.73;;;7.10;99.90;;;;;;5028334;28;20236;-52
2023/01/12 05:17:26;;;;;;;1999.90;698.87;;;7.20;99.90;;;;;;5028074;28;20317;-52
2023/01/12 05:19:54;;;;;;;1999.90;748.60;;;7.10;99.90;;;;;;5028276;28;20261;-51
2023/01/12 05:22:22;;;;;;;1999.90;653.60;;;7.10;99.90;;;;;;5028041;28;20798;-50
2023/01/12 05:24:51;;;;;;;1858.47;260.47;;;7.10;99.90;;;;;;5029101;28;20969;-52
2023/01/12 05:27:19;;;;;;;1999.90;453.87;;;7.20;99.90;;;;;;5031850;28;20206;-51
2023/01/12 05:29:48;;;;;;;935.63;195.37;;;7.10;99.90;;;;;;5030977;28;20293;-52
2023/01/12 05:32:16;;;;;;;1999.90;345.60;;;7.10;99.90;;;;;;5029223;28;20203;-51
2023/01/12 05:34:44;;;;;;;1999.90;543.57;;;7.20;99.90;;;;;;5017764;28;20252;-51
2023/01/12 05:37:12;;;;;;;1999.90;351.63;;;7.20;99.90;;;;;;5030711;28;20262;-52
2023/01/12 05:39:40;;;;;;;1983.37;260.40;;;7.20;99.90;;;;;;5031316;28;20802;-52
2023/01/12 05:44:54;;;;;;;1999.90;523.97;;;7.20;99.90;;;;;;5031385;28;20264;-51
2023/01/12 05:47:23;;;;;;;1999.90;610.17;;;7.20;99.90;;;;;;5030867;28;20254;-52
2023/01/12 05:49:51;;;;;;;1999.90;516.57;;;7.20;99.90;;;;;;5030412;28;20267;-51
2023/01/12 05:52:19;;;;;;;1999.90;484.93;;;7.20;99.90;;;;;;5031236;28;20206;-51
2023/01/12 05:54:47;;;;;;;1933.90;296.43;;;7.30;99.90;;;;;;5031215;28;20782;-51
2023/01/12 05:57:16;;;;;;;1999.90;314.03;;;7.30;99.90;;;;;;5030864;28;21103;-51
2023/01/12 05:59:44;;;;;;;1401.37;139.07;;;7.20;99.90;;;;;;5031499;28;20245;-52
2023/01/12 06:02:16;;;;;;;1999.90;356.20;;;7.30;99.90;;;;;;5024778;28;20245;-51
2023/01/12 06:04:44;;;;;;;1999.90;407.70;;;7.30;99.90;;;;;;5031285;28;20222;-52
2023/01/12 06:07:13;;;;;;;1999.90;387.83;;;7.30;99.90;;;;;;5031071;28;20199;-51
2023/01/12 06:09:41;;;;;;;1999.90;851.20;;;7.30;99.90;;;;;;5030938;28;20309;-52
2023/01/12 06:14:58;;;;;;;1999.90;545.03;;;7.30;99.90;;;;;;5031392;28;20210;-51
2023/01/12 06:17:26;;;;;;;1999.90;414.47;;;7.30;99.90;;;;;;5029744;28;20309;-51
2023/01/12 06:19:54;;;;;;;1999.90;603.43;;;7.30;99.90;;;;;;5023722;28;20252;-52
2023/01/12 06:22:22;;;;;;;1999.90;527.03;;;7.40;99.90;;;;;;5027366;28;20237;-52
2023/01/12 06:24:50;;;;;;;1933.47;317.03;;;7.40;99.90;;;;;;5035738;28;20255;-52
2023/01/12 06:27:18;;;;;;;1999.90;639.07;;;7.30;99.90;;;;;;5038267;28;20272;-52
2023/01/12 06:29:47;;;;;;;1999.90;394.90;;;7.30;99.90;;;;;;5040751;28;20305;-51
2023/01/12 06:32:16;;;;;;;1999.90;718.37;;;7.30;99.90;;;;;;5030066;28;20247;-52
2023/01/12 06:34:44;;;;;;;1999.90;743.37;;;7.40;99.90;;;;;;5027621;28;20206;-51
2023/01/12 06:37:12;;;;;;;1999.90;550.13;;;7.30;99.90;;;;;;5029567;28;20257;-52
2023/01/12 06:39:40;;;;;;;1999.90;512.87;;;7.40;99.90;;;;;;5030417;28;20245;-51
2023/01/12 06:44:53;;;;;;;1999.90;527.37;;;7.40;99.90;;;;;;5027593;28;20762;-52
2023/01/12 06:47:23;;;;;;;1999.90;594.57;;;7.40;99.90;;;;;;5030271;28;20304;-51
2023/01/12 06:49:51;;;;;;;1466.20;206.87;;;7.40;99.90;;;;;;5030568;28;20633;-52
2023/01/12 06:52:20;;;;;;;1089.13;190.43;;;7.40;99.90;;;;;;5030229;28;20241;-51
2023/01/12 06:54:48;;;;;;;1999.90;402.13;;;7.40;99.90;;;;;;5029911;28;20214;-52
2023/01/12 06:57:16;;;;;;;1999.90;283.03;;;7.40;99.90;;;;;;5029903;28;20680;-51
2023/01/12 06:59:45;;;;;;;1999.90;282.87;;;7.40;99.90;;;;;;5030340;28;20616;-52
2023/01/12 07:02:14;;;;;;;1999.90;292.80;;;7.30;99.90;;;;;;5020999;28;20233;-52
2023/01/12 07:04:44;;;;;;;1999.90;612.53;;;7.30;99.90;;;;;;5029962;28;20206;-52
2023/01/12 07:07:12;;;;;;;1999.90;331.97;;;7.30;99.90;;;;;;5030180;28;20202;-52
2023/01/12 07:09:40;;;;;;;1999.90;459.13;;;7.30;99.90;;;;;;5027373;28;20586;-50
2023/01/12 07:12:08;;;;;;;1999.90;584.47;;;7.30;99.90;;;;;;5029970;28;20313;-51
2023/01/12 07:14:36;;;;;;;1999.90;418.27;;;7.30;99.90;;;;;;5029873;28;20233;-50
2023/01/12 07:17:04;;;;;;;1999.90;347.80;;;7.30;99.90;;;;;;5029770;28;20310;-51
2023/01/12 07:19:32;;;;;;;1999.90;715.67;;;7.30;99.90;;;;;;5030059;28;20210;-52
2023/01/12 07:22:01;;;;;;;1999.90;312.73;;;7.30;99.90;;;;;;5028546;28;20754;-52
2023/01/12 07:24:30;;;;;;;1999.90;297.43;;;7.30;99.90;;;;;;5029297;28;20205;-51
2023/01/12 07:26:58;;;;;;;1999.90;654.37;;;7.30;99.90;;;;;;5030017;28;20229;-51
2023/01/12 07:29:26;;;;;;;1999.90;433.73;;;7.20;99.90;;;;;;5029764;28;20237;-52
2023/01/12 07:31:54;;;;;;;1999.90;439.97;;;7.30;99.90;;;;;;5029387;28;20241;-51
2023/01/12 07:34:22;;;;;;;1999.90;585.13;;;7.30;99.90;;;;;;5019763;28;20632;-52
2023/01/12 07:36:51;;;;;;;1999.90;307.57;;;7.30;99.90;;;;;;5029007;28;20673;-51
2023/01/12 07:39:20;;;;;;;315.97;50.80;;;7.30;99.90;;;;;;5029009;28;20719;-51
2023/01/12 07:44:45;;;;;;;1999.90;425.93;;;7.40;99.90;;;;;;4987137;28;20247;-52
2023/01/12 07:47:13;;;;;;;1004.07;167.30;;;7.40;99.90;;;;;;5018966;28;20280;-51
2023/01/12 07:49:41;;;;;;;1102.83;155.00;;;7.40;99.90;;;;;;5029231;28;20333;-55
2023/01/12 07:52:11;;;;;;;1999.90;437.93;;;7.40;99.90;;;;;;5029002;28;20249;-53
2023/01/12 07:54:40;;;;;;;1999.90;465.37;;;7.40;99.90;;;;;;5028955;28;20290;-52
2023/01/12 07:57:11;;;;;;;1999.90;414.93;;;7.30;99.90;;;;;;5029003;28;20266;-52
2023/01/12 07:59:39;;;;;;;1159.83;159.57;;;7.40;99.90;;;;;;5029313;28;20230;-51
2023/01/12 08:02:14;;;;;;;1999.90;713.20;;;7.50;99.90;;;;;;5028336;28;20265;-52
2023/01/12 08:04:42;;;;;;;1999.90;349.30;;;7.40;99.90;;;;;;5029267;28;20225;-51
2023/01/12 08:07:10;;;;;;;1999.90;638.90;;;7.40;99.90;;;;;;5027989;28;20234;-52
2023/01/12 08:09:39;;;;;;;1383.13;176.20;;;7.50;99.90;;;;;;5028722;28;20771;-53
2023/01/12 08:12:08;;;;;;;1999.90;257.97;;;7.40;99.90;;;;;;5028909;28;20236;-53
2023/01/12 08:14:37;;;;;;;1774.87;311.90;;;7.50;99.90;;;;;;5025899;28;20217;-52
2023/01/12 08:17:10;;;;;;;1999.90;330.90;;;7.50;99.90;;;;;;5026439;28;20226;-52
2023/01/12 08:19:47;;;;;;;1999.90;562.77;;;7.50;99.90;;;;;;5029378;28;20244;-52
2023/01/12 08:22:20;;;;;;;1999.90;487.17;;;7.50;99.90;;;;;;5028625;28;20205;-51
2023/01/12 08:24:54;;;;;;;1999.90;405.13;;;7.50;99.90;;;;;;5021340;28;20228;-51
2023/01/12 08:27:25;;;;;;;1999.90;521.40;;;7.50;99.90;;;;;;5029229;28;20304;-50
2023/01/12 08:29:56;;;;;;;1040.53;152.50;;;7.50;99.90;;;;;;5028849;28;20268;-51
2023/01/12 08:32:25;;;;;;;1999.90;458.90;;;7.50;99.90;;;;;;5022571;28;20202;-51
2023/01/12 08:34:54;;;;;;;1999.90;428.40;;;7.50;99.90;;;;;;5028194;28;20249;-52
2023/01/12 08:37:24;;;;;;;1999.90;782.20;;;7.50;99.90;;;;;;5025412;28;20317;-50
2023/01/12 08:39:53;;;;;;;1763.10;260.60;;;7.50;99.90;;;;;;5023638;28;20203;-51
2023/01/12 08:42:23;;;;;;;1999.90;319.97;;;7.50;99.90;;;;;;5024045;28;20237;-52
2023/01/12 08:44:53;;;;;;;1999.90;382.07;;;7.50;99.90;;;;;;5028102;28;20277;-52
2023/01/12 08:47:25;;;;;;;1089.87;193.17;;;7.50;99.90;;;;;;5028265;28;20289;-52
2023/01/12 08:49:54;;;;;;;1999.90;346.77;;;7.50;99.90;;;;;;5028792;28;20220;-51
2023/01/12 08:52:22;;;;;;;1999.90;323.97;;;7.60;99.90;;;;;;5023400;28;20587;-52
2023/01/12 08:54:51;;;;;;;1708.10;187.07;;;7.60;99.90;;;;;;5014954;28;20298;-49
2023/01/12 08:57:20;;;;;;;1890.47;272.63;;;7.60;99.90;;;;;;5028349;28;20226;-51
2023/01/12 08:59:48;;;;;;;1999.90;405.53;;;7.60;99.90;;;;;;5029524;28;20202;-52
2023/01/12 09:02:16;;;;;;;1999.90;450.63;;;7.60;99.90;;;;;;5024893;28;20211;-51
2023/01/12 09:04:44;;;;;;;1999.90;337.77;;;7.60;99.90;;;;;;5032707;28;20260;-51
2023/01/12 09:07:13;;;;;;;1999.90;548.40;;;7.60;99.90;;;;;;5032633;28;20242;-50
2023/01/12 09:09:41;;;;;;;1828.23;270.00;;;7.50;99.90;;;;;;5032244;28;20293;-52
2023/01/12 09:12:09;;;;;;;1506.20;250.40;;;7.60;99.90;;;;;;5032592;28;20256;-51
2023/01/12 09:14:38;;;;;;;1999.90;463.40;;;7.60;99.90;;;;;;5032458;28;20667;-51
2023/01/12 09:17:07;;;;;;;1999.90;370.90;;;7.70;99.90;;;;;;5032249;28;20206;-52
2023/01/12 09:19:35;;;;;;;704.37;129.47;;;7.70;99.90;;;;;;5032595;28;20578;-51
2023/01/12 09:22:03;;;;;;;1999.90;413.90;;;7.70;99.90;;;;;;5032116;28;20241;-51
2023/01/12 09:24:31;;;;;;;1999.90;387.77;;;7.70;99.90;;;;;;5032006;28;20285;-51
2023/01/12 09:27:00;;;;;;;1999.90;292.63;;;7.70;99.90;;;;;;5031946;28;20719;-50
2023/01/12 09:29:28;;;;;;;1999.90;512.63;;;7.80;99.90;;;;;;5032191;28;20631;-52
2023/01/12 09:31:57;;;;;;;1999.90;345.63;;;7.80;99.90;;;;;;5031818;28;20218;-52
2023/01/12 09:34:25;;;;;;;1999.90;457.50;;;7.80;99.90;;;;;;5030559;28;20253;-51
2023/01/12 09:36:55;;;;;;;1999.90;615.60;;;7.80;99.90;;;;;;5031318;28;20203;-51
2023/01/12 09:39:23;;;;;;;1999.90;327.37;;;7.80;99.90;;;;;;5030941;28;20229;-52
2023/01/12 09:47:35;;;;;;;1999.90;400.03;;;7.80;99.90;;;;;;5031219;28;20769;-52
2023/01/12 09:50:09;;;;;;;1999.90;431.00;;;7.90;99.90;;;;;;5031699;28;20210;-52
2023/01/12 09:52:41;;;;;;;1595.70;238.37;;;7.90;99.90;;;;;;5031146;28;20237;-52
2023/01/12 09:55:16;;;;;;;1980.70;350.63;;;7.90;99.90;;;;;;5031331;28;20242;-52
2023/01/12 09:58:13;;;;;;;1386.20;195.83;;;8.00;99.90;;;;;;5031177;28;20312;-52
2023/01/12 10:00:41;;;;;;;1234.57;159.43;;;8.10;99.90;;;;;;5030536;28;20214;-52
2023/01/12 10:03:23;;;;;;;1999.90;451.00;;;8.00;99.90;;;;;;5031069;28;20847;-53
2023/01/12 10:05:53;;;;;;;773.17;135.57;;;8.00;99.90;;;;;;5031755;28;20206;-52
2023/01/12 10:08:30;;;;;;;1999.90;330.67;;;8.00;99.90;;;;;;5030993;28;20250;-52
2023/01/12 10:11:05;;;;;;;1711.50;279.90;;;8.10;99.90;;;;;;5030934;28;20241;-51
2023/01/12 10:14:03;;;;;;;1866.47;329.97;;;8.10;99.90;;;;;;5030882;28;20247;-51
2023/01/12 10:16:40;;;;;;;1999.90;354.93;;;8.10;99.90;;;;;;5027943;28;20239;-51
2023/01/12 10:19:22;;;;;;;1999.90;310.13;;;8.10;99.90;;;;;;5031116;28;20229;-51
2023/01/12 10:21:52;;;;;;;1999.90;283.17;;;8.10;99.90;;;;;;5025592;28;20210;-51
2023/01/12 10:24:21;;;;;;;1999.90;347.90;;;8.10;99.90;;;;;;5030527;28;20635;-51
2023/01/12 10:26:55;;;;;;;1999.90;523.23;;;8.10;99.90;;;;;;5031242;28;20280;-51
2023/01/12 10:29:24;;;;;;;969.07;149.53;;;8.10;99.90;;;;;;5020680;28;20273;-51
2023/01/12 10:31:52;;;;;;;1999.90;437.23;;;8.20;99.90;;;;;;5018768;28;20852;-52
2023/01/12 10:34:22;;;;;;;1560.57;250.00;;;8.20;99.90;;;;;;5021648;28;20604;-52
2023/01/12 10:36:56;;;;;;;1999.90;433.17;;;8.20;99.90;;;;;;5030098;28;20210;-51
2023/01/12 10:39:30;;;;;;;744.33;137.47;;;8.20;99.90;;;;;;5030431;28;20830;-52
2023/01/12 10:45:16;;;;;;;1008.53;117.23;;;8.30;99.90;;;;;;5017851;28;20206;-51
2023/01/12 10:47:46;;;;;;;1999.90;536.57;;;8.30;99.90;;;;;;5029129;28;20239;-51
2023/01/12 10:50:27;;;;;;;259.73;60.80;;;8.30;99.90;;;;;;5028667;28;20301;-51
2023/01/12 10:52:59;;;;;;;1999.90;367.10;;;8.30;99.90;;;;;;5029056;28;20256;-51
2023/01/12 10:55:31;;;;;;;1999.90;358.43;;;8.30;99.90;;;;;;5020749;28;20230;-51
2023/01/12 10:58:00;;;;;;;1999.90;424.97;;;8.30;99.90;;;;;;5029495;28;20255;-51
2023/01/12 11:00:29;;;;;;;1999.90;655.47;;;8.30;99.90;;;;;;5030272;28;20257;-51
2023/01/12 11:02:57;;;;;;;1230.77;166.20;;;8.40;99.90;;;;;;5027082;28;20677;-52
2023/01/12 11:05:30;;;;;;;1844.70;294.30;;;8.50;99.90;;;;;;5030067;28;20209;-51
2023/01/12 11:07:58;;;;;;;1609.00;191.57;;;8.50;99.90;;;;;;5028606;28;20233;-52
2023/01/12 11:10:28;;;;;;;1508.60;243.30;;;8.60;99.90;;;;;;5029024;28;20240;-52
2023/01/12 11:12:58;;;;;;;1999.90;469.80;;;8.60;99.90;;;;;;5029584;28;20644;-51
2023/01/12 11:15:28;;;;;;;1999.90;500.20;;;8.60;99.90;;;;;;5029867;28;20238;-52
2023/01/12 11:18:24;;;;;;;1999.90;291.93;;;8.60;99.90;;;;;;5028433;28;20773;-52
2023/01/12 11:20:59;;;;;;;1505.50;238.07;;;8.60;99.90;;;;;;5016640;28;20214;-51
2023/01/12 11:23:34;;;;;;;1999.90;538.47;;;8.70;99.90;;;;;;5016889;28;20237;-51
2023/01/12 11:26:08;;;;;;;1998.13;268.93;;;8.70;99.90;;;;;;5016843;28;20301;-52
2023/01/12 11:28:42;;;;;;;1790.17;275.87;;;8.80;99.90;;;;;;5028728;28;20253;-53
2023/01/12 11:31:16;;;;;;;1989.20;300.33;;;8.70;99.90;;;;;;5027766;28;20199;-52
2023/01/12 11:33:48;;;;;;;1439.20;248.03;;;8.70;99.90;;;;;;5028107;28;20203;-52
2023/01/12 11:36:20;;;;;;;860.83;143.33;;;8.70;99.90;;;;;;5029269;28;20285;-51
2023/01/12 11:38:51;;;;;;;1138.20;203.20;;;8.80;99.90;;;;;;5028485;28;20320;-52
2023/01/12 11:41:24;;;;;;;1508.03;247.83;;;8.80;99.90;;;;;;5025119;28;20779;-50
2023/01/12 11:44:01;;;;;;;1999.90;373.60;;;8.80;99.90;;;;;;5017212;28;20206;-52
2023/01/12 11:46:35;;;;;;;1999.90;470.13;;;8.80;99.90;;;;;;5021976;28;20215;-52
2023/01/12 11:49:11;;;;;;;1999.90;595.37;;;8.80;99.90;;;;;;5026353;28;20278;-51
2023/01/12 11:51:42;;;;;;;1775.53;326.13;;;8.90;99.90;;;;;;5028443;28;20741;-52
2023/01/12 11:54:15;;;;;;;599.40;90.70;;;8.90;99.90;;;;;;5028350;28;20250;-51
2023/01/12 11:57:14;;;;;;;1778.23;241.37;;;8.90;99.90;;;;;;5028078;28;20210;-50
2023/01/12 11:59:56;;;;;;;1999.90;552.60;;;8.90;99.90;;;;;;5021762;28;20291;-51
2023/01/12 12:02:36;;;;;;;1999.90;289.57;;;8.90;99.90;;;;;;5028819;28;20257;-51
2023/01/12 12:05:24;;;;;;;1999.90;331.13;;;8.90;99.90;;;;;;5016586;28;20202;-51
2023/01/12 12:08:07;;;;;;;1999.90;366.23;;;8.90;99.90;;;;;;5024340;28;20264;-50
2023/01/12 12:10:43;;;;;;;1852.90;262.07;;;9.00;99.90;;;;;;5028932;28;20238;-52
2023/01/12 12:13:22;;;;;;;1999.90;388.40;;;9.00;99.90;;;;;;5028832;28;20210;-51
2023/01/12 12:16:01;;;;;;;1999.90;399.10;;;9.00;99.90;;;;;;5016388;28;20212;-51
2023/01/12 12:18:44;;;;;;;1999.90;579.67;;;9.00;99.90;;;;;;5026046;28;20252;-51
2023/01/12 12:21:34;;;;;;;1999.90;562.57;;;9.00;99.90;;;;;;5029146;28;20213;-51
2023/01/12 12:24:11;;;;;;;1976.00;394.30;;;8.90;99.90;;;;;;5028414;28;20202;-51
2023/01/12 12:26:43;;;;;;;1999.90;437.93;;;8.90;99.90;;;;;;5025000;28;20214;-50
2023/01/12 12:29:29;;;;;;;1999.90;388.97;;;9.00;99.90;;;;;;5028779;28;20312;-50
2023/01/12 12:32:05;;;;;;;1413.97;280.27;;;9.00;99.90;;;;;;5028602;28;20296;-51
2023/01/12 12:35:13;;;;;;;1991.87;314.57;;;9.00;99.90;;;;;;5025891;28;20642;-51
2023/01/12 12:37:53;;;;;;;1999.90;392.70;;;9.00;99.90;;;;;;5032166;28;20264;-50
2023/01/12 12:46:30;;;;;;;1077.63;205.33;;;9.10;99.90;;;;;;5032642;28;20212;-51
2023/01/12 12:49:03;;;;;;;1999.90;309.80;;;9.10;99.90;;;;;;5032769;28;20236;-51
2023/01/12 12:51:33;;;;;;;1695.83;312.00;;;9.10;99.90;;;;;;5033025;28;20214;-51
2023/01/12 12:54:05;;;;;;;1402.53;201.17;;;9.10;99.90;;;;;;5032473;28;20214;-51
2023/01/12 12:56:36;;;;;;;1554.43;294.30;;;9.10;99.90;;;;;;5032788;28;20206;-51
2023/01/12 12:59:06;;;;;;;1999.90;387.80;;;9.10;99.90;;;;;;5032544;28;20234;-52
2023/01/12 13:01:42;;;;;;;1517.43;175.13;;;9.10;99.90;;;;;;5032287;28;20217;-51
2023/01/12 13:04:13;;;;;;;951.13;119.63;;;9.10;99.90;;;;;;5032719;28;20210;-51
2023/01/12 13:06:44;;;;;;;1999.90;315.60;;;9.10;99.90;;;;;;5032419;28;20210;-52
2023/01/12 13:09:38;;;;;;;1999.90;669.40;;;9.10;99.90;;;;;;5032121;28;20253;-51
2023/01/12 13:12:20;;;;;;;1999.90;340.77;;;9.10;99.90;;;;;;5032200;28;20294;-51
2023/01/12 13:15:17;;;;;;;1481.47;220.07;;;9.10;99.90;;;;;;5032091;28;20214;-50